createdAt,value
2018-12-16T00:04:32.173Z,21.97
2018-12-16T00:09:11.059Z,22.83
2018-12-16T00:13:49.901Z,22.67
2018-12-16T00:18:28.556Z,21.60
2018-12-16T00:23:07.460Z,23.00
2018-12-16T00:27:46.422Z,23.17
2018-12-16T00:32:25.364Z,25.20
2018-12-16T00:37:04.363Z,24.07
2018-12-16T00:41:43.204Z,26.23
2018-12-16T00:46:21.946Z,26.03
2018-12-16T00:51:00.800Z,25.77
2018-12-16T00:55:39.555Z,24.40
2018-12-16T01:00:18.680Z,26.47
2018-12-16T01:04:57.491Z,26.87
2018-12-16T01:09:36.248Z,25.83
2018-12-16T01:14:15.001Z,25.97
2018-12-16T01:18:54.545Z,28.03
2018-12-16T01:23:33.490Z,26.50
2018-12-16T01:28:12.422Z,26.80
2018-12-16T01:32:51.212Z,23.53
2018-12-16T01:37:29.968Z,26.20
2018-12-16T01:42:08.846Z,27.30
2018-12-16T01:46:47.516Z,27.07
2018-12-16T01:51:26.168Z,28.37
2018-12-16T01:56:04.996Z,28.37
2018-12-16T02:00:43.780Z,27.50
2018-12-16T02:05:22.675Z,28.10
2018-12-16T02:10:01.415Z,28.30
2018-12-16T02:14:40.352Z,27.97
2018-12-16T02:19:19.065Z,28.03
2018-12-16T02:23:57.894Z,28.80
2018-12-16T02:28:36.576Z,28.03
2018-12-16T02:33:15.360Z,28.77
2018-12-16T02:37:54.183Z,28.70
2018-12-16T02:42:32.934Z,28.07
2018-12-16T02:47:11.792Z,27.33
2018-12-16T02:51:50.432Z,28.07
2018-12-16T02:56:29.227Z,28.70
2018-12-16T03:01:08.042Z,28.57
2018-12-16T03:05:47.122Z,29.17
2018-12-16T03:10:25.755Z,28.57
2018-12-16T03:15:05.269Z,27.80
2018-12-16T03:19:44.073Z,27.20
2018-12-16T03:24:22.714Z,28.83
2018-12-16T03:29:01.504Z,28.30
2018-12-16T03:33:40.223Z,28.03
2018-12-16T03:38:18.981Z,27.23
2018-12-16T03:42:57.868Z,28.30
2018-12-16T03:47:36.648Z,27.83
2018-12-16T03:52:15.382Z,28.17
2018-12-16T03:56:54.135Z,28.87
2018-12-16T04:01:32.901Z,28.87
2018-12-16T04:06:11.704Z,28.43
2018-12-16T04:10:50.440Z,28.00
2018-12-16T04:15:29.244Z,28.17
2018-12-16T04:20:07.978Z,28.77
2018-12-16T04:24:46.656Z,29.53
2018-12-16T04:29:25.501Z,27.83
2018-12-16T04:34:04.257Z,30.33
2018-12-16T04:38:42.860Z,30.07
2018-12-16T04:43:21.656Z,29.13
2018-12-16T04:48:00.497Z,28.63
2018-12-16T04:52:39.439Z,29.20
2018-12-16T04:57:18.219Z,30.10
2018-12-16T05:01:56.829Z,31.83
2018-12-16T05:06:35.782Z,31.53
2018-12-16T05:11:14.557Z,30.93
2018-12-16T05:15:53.279Z,30.67
2018-12-16T05:20:32.205Z,30.60
2018-12-16T05:25:11.096Z,30.93
2018-12-16T05:29:49.868Z,31.30
2018-12-16T05:34:28.664Z,31.77
2018-12-16T05:39:07.519Z,31.57
2018-12-16T05:43:46.251Z,31.77
2018-12-16T05:48:25.181Z,29.77
2018-12-16T05:53:03.940Z,31.83
2018-12-16T05:57:42.836Z,33.37
2018-12-16T06:02:21.464Z,32.30
2018-12-16T06:07:00.380Z,33.20
2018-12-16T06:11:39.113Z,33.70
2018-12-16T06:16:17.756Z,32.00
2018-12-16T06:20:56.725Z,31.90
2018-12-16T06:25:35.448Z,32.00
2018-12-16T06:30:14.748Z,33.80
2018-12-16T06:34:53.405Z,33.27
2018-12-16T06:39:32.167Z,33.20
2018-12-16T06:44:11.057Z,32.47
2018-12-16T06:48:49.838Z,31.67
2018-12-16T06:53:28.766Z,33.60
2018-12-16T06:58:07.656Z,31.83
2018-12-16T07:02:48.452Z,38.73
2018-12-16T07:07:27.173Z,41.03
2018-12-16T07:12:05.932Z,33.63
2018-12-16T07:16:45.046Z,31.07
2018-12-16T07:21:23.852Z,32.13
2018-12-16T07:26:02.757Z,32.43
2018-12-16T07:30:41.459Z,32.77
2018-12-16T07:35:20.317Z,32.43
2018-12-16T07:39:58.934Z,32.97
2018-12-16T07:44:37.717Z,31.90
2018-12-16T07:49:16.605Z,33.27
2018-12-16T07:53:55.505Z,35.07
2018-12-16T07:58:34.264Z,33.40
2018-12-16T08:03:13.037Z,35.57
2018-12-16T08:07:51.941Z,35.80
2018-12-16T08:12:30.664Z,34.97
2018-12-16T08:17:09.299Z,34.07
2018-12-16T08:21:48.064Z,34.10
2018-12-16T08:26:26.887Z,34.40
2018-12-16T08:31:05.714Z,34.23
2018-12-16T08:35:44.605Z,32.23
2018-12-16T08:40:23.590Z,34.93
2018-12-16T08:45:02.321Z,34.90
2018-12-16T08:49:40.981Z,36.47
2018-12-16T08:54:19.808Z,36.60
2018-12-16T08:58:58.645Z,38.47
2018-12-16T09:03:37.517Z,38.53
2018-12-16T09:08:16.289Z,38.43
2018-12-16T09:12:55.221Z,35.10
2018-12-16T09:17:33.958Z,36.93
2018-12-16T09:22:13.511Z,37.77
2018-12-16T09:26:52.132Z,36.73
2018-12-16T09:31:30.856Z,36.60
2018-12-16T09:36:09.580Z,37.47
2018-12-16T09:40:48.439Z,35.47
2018-12-16T09:45:28.095Z,38.23
2018-12-16T09:50:06.849Z,37.57
2018-12-16T09:54:46.950Z,36.07
2018-12-16T09:59:26.742Z,36.00
2018-12-16T10:04:05.516Z,35.60
2018-12-16T10:08:44.348Z,35.80
2018-12-16T10:13:22.992Z,37.07
2018-12-16T10:18:01.759Z,36.57
2018-12-16T10:22:40.415Z,34.60
2018-12-16T10:27:19.142Z,36.13
2018-12-16T10:31:57.905Z,35.20
2018-12-16T10:36:36.827Z,36.87
2018-12-16T10:41:15.743Z,36.80
2018-12-16T10:45:54.498Z,35.73
2018-12-16T10:50:33.224Z,36.90
2018-12-16T10:55:11.915Z,41.33
2018-12-16T10:59:50.610Z,38.47
2018-12-16T11:04:29.594Z,40.87
2018-12-16T11:09:08.396Z,37.20
2018-12-16T11:13:47.186Z,36.47
2018-12-16T11:18:25.999Z,37.90
2018-12-16T11:23:04.668Z,41.40
2018-12-16T11:27:43.688Z,40.20
2018-12-16T11:32:22.445Z,41.40
2018-12-16T11:37:01.221Z,37.27
2018-12-16T11:41:39.984Z,37.73
2018-12-16T11:46:18.716Z,35.10
2018-12-16T11:50:57.544Z,34.13
2018-12-16T11:55:36.545Z,33.27
2018-12-16T12:00:15.315Z,33.93
2018-12-16T12:04:54.080Z,35.77
2018-12-16T12:09:32.883Z,36.17
2018-12-16T12:14:11.684Z,34.93
2018-12-16T12:18:58.309Z,36.70
2018-12-16T12:23:37.244Z,36.17
2018-12-16T12:28:16.207Z,35.77
2018-12-16T12:32:55.152Z,35.43
2018-12-16T12:37:35.235Z,34.60
2018-12-16T12:42:14.239Z,35.53
2018-12-16T12:46:53.096Z,38.53
2018-12-16T12:51:31.750Z,39.70
2018-12-16T12:56:10.483Z,41.77
2018-12-16T13:00:49.159Z,41.63
2018-12-16T13:05:27.945Z,39.57
2018-12-16T13:10:08.680Z,39.00
2018-12-16T13:14:47.325Z,38.87
2018-12-16T13:19:26.654Z,41.67
2018-12-16T13:24:05.428Z,40.87
2018-12-16T13:28:44.233Z,39.67
2018-12-16T13:33:22.949Z,42.27
2018-12-16T13:38:01.685Z,44.30
2018-12-16T13:42:40.536Z,43.27
2018-12-16T13:47:19.383Z,44.23
2018-12-16T13:51:58.133Z,39.93
2018-12-16T13:56:37.014Z,37.50
2018-12-16T14:01:15.912Z,38.23
2018-12-16T14:05:54.803Z,45.07
2018-12-16T14:10:34.137Z,43.93
2018-12-16T14:15:12.867Z,43.93
2018-12-16T14:19:51.543Z,45.70
2018-12-16T14:24:30.284Z,47.57
2018-12-16T14:29:09.189Z,45.43
2018-12-16T14:33:47.976Z,37.83
2018-12-16T14:38:27.037Z,40.63
2018-12-16T14:43:05.732Z,42.07
2018-12-16T14:47:44.532Z,39.97
2018-12-16T14:52:23.165Z,38.30
2018-12-16T14:57:01.911Z,36.27
2018-12-16T15:01:40.545Z,34.80
2018-12-16T15:06:19.127Z,40.23
2018-12-16T15:10:57.815Z,44.87
2018-12-16T15:15:36.615Z,40.80
2018-12-16T15:20:15.527Z,42.63
2018-12-16T15:24:54.636Z,42.43
2018-12-16T15:29:33.394Z,43.83
2018-12-16T15:34:12.132Z,39.23
2018-12-16T15:38:50.964Z,41.10
2018-12-16T15:43:29.844Z,42.60
2018-12-16T15:48:08.604Z,41.00
2018-12-16T15:52:47.240Z,44.20
2018-12-16T15:57:25.897Z,42.13
2018-12-16T16:02:04.690Z,40.73
2018-12-16T16:06:43.539Z,39.00
2018-12-16T16:11:22.822Z,48.40
2018-12-16T16:16:01.837Z,43.20
2018-12-16T16:20:41.052Z,42.07
2018-12-16T16:25:19.701Z,40.53
2018-12-16T16:29:58.504Z,40.10
2018-12-16T16:34:37.396Z,42.27
2018-12-16T16:39:17.151Z,43.20
2018-12-16T16:43:56.045Z,43.07
2018-12-16T16:48:34.883Z,42.33
2018-12-16T16:53:13.620Z,37.43
2018-12-16T16:57:52.403Z,40.87
2018-12-16T17:02:31.236Z,40.97
2018-12-16T17:07:10.025Z,45.83
2018-12-16T17:11:48.804Z,43.97
2018-12-16T17:16:27.879Z,45.73
2018-12-16T17:21:06.759Z,47.37
2018-12-16T17:25:48.360Z,45.10
2018-12-16T17:30:26.185Z,41.30
2018-12-16T17:35:06.726Z,41.53
2018-12-16T17:39:45.500Z,41.83
2018-12-16T17:44:24.261Z,44.80
2018-12-16T17:49:04.002Z,43.50
2018-12-16T17:53:42.922Z,43.70
2018-12-16T17:58:21.803Z,46.87
2018-12-16T18:03:00.504Z,47.77
2018-12-16T18:07:39.256Z,48.47
2018-12-16T18:12:17.988Z,49.27
2018-12-16T18:16:57.964Z,46.07
2018-12-16T18:21:36.677Z,46.37
2018-12-16T18:26:15.452Z,49.63
2018-12-16T18:30:54.137Z,53.90
2018-12-16T18:35:32.900Z,56.60
2018-12-16T18:40:11.858Z,53.50
2018-12-16T18:44:50.524Z,54.30
2018-12-16T18:49:29.177Z,56.17
2018-12-16T18:54:07.957Z,54.13
2018-12-16T18:58:46.666Z,50.47
2018-12-16T19:03:25.605Z,51.07
2018-12-16T19:08:04.289Z,48.10
2018-12-16T19:12:43.053Z,42.13
2018-12-16T19:17:22.152Z,40.57
2018-12-16T19:22:01.065Z,47.47
2018-12-16T19:26:39.855Z,45.70
2018-12-16T19:31:18.653Z,49.80
2018-12-16T19:35:57.359Z,53.80
2018-12-16T19:40:36.248Z,51.60
2018-12-16T19:45:15.010Z,48.50
2018-12-16T19:49:53.808Z,49.10
2018-12-16T19:54:33.169Z,51.10
2018-12-16T19:59:11.840Z,56.10
2018-12-16T20:03:56.464Z,64.63
2018-12-16T20:08:35.304Z,59.40
2018-12-16T20:13:14.087Z,54.17
2018-12-16T20:17:52.947Z,58.47
2018-12-16T20:22:31.722Z,60.97
2018-12-16T20:27:12.112Z,65.00
2018-12-16T20:31:50.898Z,61.13
2018-12-16T20:36:29.971Z,62.17
2018-12-16T20:41:08.701Z,60.37
2018-12-16T20:45:47.608Z,58.83
2018-12-16T20:50:26.424Z,57.60
2018-12-16T20:55:06.115Z,56.23
2018-12-16T20:59:44.960Z,49.83
2018-12-16T21:04:24.049Z,54.20
2018-12-16T21:09:03.858Z,51.93
2018-12-16T21:18:48.205Z,47.03
2018-12-16T21:23:26.957Z,67.80
2018-12-16T21:28:06.001Z,57.83
2018-12-16T21:32:44.771Z,60.77
2018-12-16T21:37:23.491Z,66.40
2018-12-16T21:42:02.791Z,63.57
2018-12-16T21:46:41.568Z,61.07
2018-12-16T21:51:20.337Z,54.57
2018-12-16T21:55:59.105Z,53.60
2018-12-16T22:00:37.888Z,60.83
2018-12-16T22:05:16.905Z,55.57
2018-12-16T22:09:55.558Z,45.77
2018-12-16T22:14:34.232Z,49.43
2018-12-16T22:19:13.248Z,56.33
2018-12-16T22:23:52.260Z,42.47
2018-12-16T22:28:31.019Z,43.27
2018-12-16T22:33:09.701Z,40.47
2018-12-16T22:37:48.535Z,38.37
2018-12-16T22:42:27.367Z,36.73
2018-12-16T22:47:06.045Z,38.90
2018-12-16T22:51:44.746Z,36.13
2018-12-16T22:56:23.393Z,33.30
2018-12-16T23:01:08.169Z,30.50
2018-12-16T23:05:47.035Z,32.40
2018-12-16T23:10:26.688Z,31.43
2018-12-16T23:15:06.075Z,31.93
2018-12-16T23:19:47.032Z,32.87
2018-12-16T23:24:26.773Z,28.37
2018-12-16T23:29:06.292Z,27.50
2018-12-16T23:33:45.087Z,27.47
2018-12-16T23:38:23.797Z,30.93
2018-12-16T23:43:03.068Z,30.70
2018-12-16T23:47:41.891Z,31.50
2018-12-16T23:52:20.718Z,33.60
2018-12-16T23:56:59.325Z,34.50
